<?xml version='1.0' encoding='UTF-8'?>
<gpx xmlns="http://www.topografix.com/GPX/1/1" creator="www.balnam.be" version="1.1" xmlns:xsi="http://www.w3.org/2001/XMLSchema-instance" xsi:schemaLocation="http://www.topografix.com/GPX/1/1 http://www.topografix.com/GPX/1/1/gpx.xsd">
<trk>
<name>xshaw3</name>
<cmt>v</cmt>
<desc>Awenne Chemin n°3 Rue Joseph Calozet</desc>
<link href="https://chemins.be/awenne/chemin/3"/><trkseg>
<trkpt lat="50.089003" lon="5.322242"><time>2026-05-04T18:48:35Z</time></trkpt>
<trkpt lat="50.087695" lon="5.323490"><time>2026-05-04T18:58:35Z</time></trkpt>
<trkpt lat="50.086306" lon="5.323882"><time>2026-05-04T19:08:35Z</time></trkpt>
<trkpt lat="50.085133" lon="5.323934"><time>2026-05-04T19:18:35Z</time></trkpt>
<trkpt lat="50.084093" lon="5.324354"><time>2026-05-04T19:28:35Z</time></trkpt>
<trkpt lat="50.083028" lon="5.324877"><time>2026-05-04T19:38:35Z</time></trkpt>
</trkseg></trk>
<trk>
<name>xshaw3</name>
<cmt>r</cmt>
<desc>Awenne Chemin n°3 Rue Joseph Calozet</desc>
<link href="https://chemins.be/awenne/chemin/3"/><trkseg>
<trkpt lat="50.083028" lon="5.324877"><time>2026-05-04T19:38:35Z</time></trkpt>
<trkpt lat="50.080913" lon="5.325466"><time>2026-05-04T19:48:35Z</time></trkpt>
</trkseg></trk>
<trk>
<name>xshaw3</name>
<cmt>v</cmt>
<desc>Awenne Chemin n°3 Rue Joseph Calozet</desc>
<link href="https://chemins.be/awenne/chemin/3"/><trkseg>
<trkpt lat="50.080913" lon="5.325466"><time>2026-05-04T19:48:35Z</time></trkpt>
<trkpt lat="50.080105" lon="5.326291"><time>2026-05-04T19:58:35Z</time></trkpt>
<trkpt lat="50.078849" lon="5.327021"><time>2026-05-04T20:08:35Z</time></trkpt>
<trkpt lat="50.077167" lon="5.328258"><time>2026-05-04T20:18:35Z</time></trkpt>
<trkpt lat="50.075370" lon="5.329144"><time>2026-05-04T20:28:35Z</time></trkpt>
<trkpt lat="50.074427" lon="5.329041"><time>2026-05-04T20:38:35Z</time></trkpt>
<trkpt lat="50.072802" lon="5.329763"><time>2026-05-04T20:48:35Z</time></trkpt>
</trkseg></trk>
<trk>
<name>xshaw3</name>
<cmt>d</cmt>
<desc>Awenne Chemin n°3 Rue Joseph Calozet</desc>
<link href="https://chemins.be/awenne/chemin/3"/><trkseg>
<trkpt lat="50.072802" lon="5.329763"><time>2026-05-04T20:48:35Z</time></trkpt>
<trkpt lat="50.072432" lon="5.330021"><time>2026-05-04T20:58:35Z</time></trkpt>
</trkseg></trk>
<trk>
<name>xshaw3</name>
<cmt>v</cmt>
<desc>Awenne Chemin n°3 Rue Joseph Calozet</desc>
<link href="https://chemins.be/awenne/chemin/3"/><trkseg>
<trkpt lat="50.072432" lon="5.330021"><time>2026-05-04T20:58:35Z</time></trkpt>
<trkpt lat="50.069029" lon="5.332579"><time>2026-05-04T21:08:35Z</time></trkpt>
<trkpt lat="50.065486" lon="5.334882"><time>2026-05-04T21:18:35Z</time></trkpt>
<trkpt lat="50.062940" lon="5.337553"><time>2026-05-04T21:28:35Z</time></trkpt>
<trkpt lat="50.062100" lon="5.338969"><time>2026-05-04T21:38:35Z</time></trkpt>
<trkpt lat="50.059345" lon="5.340806"><time>2026-05-04T21:48:35Z</time></trkpt>
<trkpt lat="50.058794" lon="5.341493"><time>2026-05-04T21:58:35Z</time></trkpt>
<trkpt lat="50.057648" lon="5.343484"><time>2026-05-04T22:08:35Z</time></trkpt>
</trkseg>
</trk>
</gpx>